Time;durP1;ratioP1;P1;durP2;ratioP2;P2;SDS_P1;SDS_P2;PMS_P1;PMS_P2;Temp;Humidity;BMP_temperature;BMP_pressure;BME280_temperature;BME280_humidity;BME280_pressure;Samples;Min_cycle;Max_cycle;Signal;HPM_P1;HPM_P2
2022/05/10 00:01:58;;;;;;;;;;;15.20;57.80;;;;;;5113904;28;20028;-73
2022/05/10 00:04:24;;;;;;;11.00;5.90;;;15.10;56.40;;;;;;5097794;28;20010;-78
2022/05/10 00:06:50;;;;;;;9.30;5.50;;;15.00;56.90;;;;;;5097069;28;20115;-73
2022/05/10 00:09:21;;;;;;;;;;;15.00;57.10;;;;;;5097839;28;20035;-78
2022/05/10 00:11:49;;;;;;;12.82;6.32;;;14.90;56.90;;;;;;5097415;28;20019;-73
2022/05/10 00:14:15;;;;;;;10.27;6.10;;;14.80;57.40;;;;;;5080298;28;20059;-78
2022/05/10 00:16:45;;;;;;;10.57;6.18;;;14.80;58.00;;;;;;5096185;28;20074;-78
2022/05/10 00:19:31;;;;;;;11.25;5.75;;;14.70;58.10;;;;;;5080174;28;20130;-73
2022/05/10 00:21:58;;;;;;;11.05;5.88;;;14.80;58.20;;;;;;5097231;28;20068;-73
2022/05/10 00:24:25;;;;;;;9.45;5.35;;;14.70;58.10;;;;;;5097018;28;20031;-73
2022/05/10 00:26:51;;;;;;;10.38;5.30;;;14.70;58.20;;;;;;5115111;28;20039;-72
2022/05/10 00:29:20;;;;;;;10.55;5.38;;;14.70;58.10;;;;;;5080064;28;20032;-77
2022/05/10 00:31:48;;;;;;;9.38;5.63;;;14.50;58.00;;;;;;5075602;28;20032;-74
2022/05/10 00:34:17;;;;;;;10.57;5.45;;;14.50;58.10;;;;;;5076954;28;20043;-78
2022/05/10 00:36:43;;;;;;;8.43;4.95;;;14.40;58.20;;;;;;5076483;28;20551;-78
2022/05/10 00:39:11;;;;;;;8.85;5.28;;;14.30;58.00;;;;;;5076684;28;20039;-73
2022/05/10 00:42:34;;;;;;;8.73;5.28;;;14.30;58.50;;;;;;5076194;28;20134;-78
2022/05/10 00:45:15;;;;;;;12.25;5.32;;;14.30;58.20;;;;;;5094848;28;20504;-73
2022/05/10 00:48:03;;;;;;;9.43;5.60;;;14.20;58.10;;;;;;5088101;28;20043;-73
2022/05/10 00:50:40;;;;;;;10.63;6.00;;;14.20;58.30;;;;;;5096279;28;20073;-78
2022/05/10 00:53:47;;;;;;;11.48;6.22;;;14.10;58.20;;;;;;5115436;28;20077;-75
2022/05/10 00:56:41;;;;;;;9.93;6.28;;;14.10;58.20;;;;;;5096063;28;20102;-73
2022/05/10 00:59:47;;;;;;;11.52;6.00;;;14.00;58.30;;;;;;5114639;28;20408;-77
2022/05/10 01:02:39;;;;;;;11.82;6.43;;;14.00;58.40;;;;;;5113716;28;20058;-78
2022/05/10 01:05:44;;;;;;;11.23;7.10;;;13.90;58.40;;;;;;5114615;28;20032;-73
2022/05/10 01:08:28;;;;;;;10.00;5.97;;;13.80;58.90;;;;;;5115143;28;20478;-78
2022/05/10 01:11:15;;;;;;;8.25;5.30;;;13.80;58.90;;;;;;5079222;28;20027;-73
2022/05/10 01:14:08;;;;;;;10.95;6.00;;;13.70;58.90;;;;;;5096013;28;20103;-78
2022/05/10 01:16:37;;;;;;;10.13;5.82;;;13.70;58.90;;;;;;5095331;28;20039;-78
2022/05/10 01:19:06;;;;;;;10.43;6.13;;;13.70;59.00;;;;;;5114175;28;20377;-78
2022/05/10 01:22:29;;;;;;;12.00;5.95;;;13.60;59.10;;;;;;5095573;28;20549;-73
2022/05/10 01:25:32;;;;;;;10.38;5.68;;;13.70;59.00;;;;;;5095831;28;20057;-78
2022/05/10 01:28:19;;;;;;;10.80;6.10;;;13.70;58.80;;;;;;5114551;28;20040;-78
2022/05/10 01:30:45;;;;;;;10.45;5.95;;;13.60;59.00;;;;;;5095975;28;20032;-78
2022/05/10 01:33:46;;;;;;;;;;;13.60;58.80;;;;;;5095679;28;20040;-78
2022/05/10 01:36:43;;;;;;;10.07;5.32;;;13.60;58.10;;;;;;5094998;28;20395;-78
2022/05/10 01:39:30;;;;;;;12.10;6.30;;;13.60;58.60;;;;;;5078840;28;20168;-78
2022/05/10 01:42:34;;;;;;;10.57;6.72;;;13.50;59.10;;;;;;5095818;28;20035;-78
2022/05/10 01:45:25;;;;;;;10.02;5.90;;;13.50;59.60;;;;;;5095702;28;20378;-73
2022/05/10 01:47:58;;;;;;;10.32;6.20;;;13.50;59.30;;;;;;5094580;28;20064;-78
2022/05/10 01:50:33;;;;;;;10.82;6.53;;;13.40;59.50;;;;;;5095144;28;20084;-78
2022/05/10 01:53:14;;;;;;;10.70;5.97;;;13.40;59.80;;;;;;5114206;28;20081;-73
2022/05/10 01:56:02;;;;;;;12.65;6.45;;;13.40;59.80;;;;;;5095071;28;20057;-78
2022/05/10 01:58:37;;;;;;;10.43;6.40;;;13.40;59.80;;;;;;5095379;28;20036;-78
2022/05/10 02:01:45;;;;;;;11.13;6.45;;;13.40;60.30;;;;;;5094817;28;20083;-79
2022/05/10 02:04:33;;;;;;;13.02;5.95;;;13.40;60.20;;;;;;5112750;28;20040;-78
2022/05/10 02:07:13;;;;;;;11.45;6.18;;;13.40;60.30;;;;;;5094917;28;20053;-79
2022/05/10 02:10:38;;;;;;;12.85;7.25;;;13.30;60.80;;;;;;5095534;28;20093;-74
2022/05/10 02:13:29;;;;;;;11.30;6.45;;;13.30;60.60;;;;;;5113810;28;20077;-73
2022/05/10 02:16:51;;;;;;;13.10;6.50;;;13.30;60.80;;;;;;5113020;28;20028;-75
2022/05/10 02:20:14;;;;;;;12.88;7.28;;;13.30;60.90;;;;;;5094163;28;20032;-76
2022/05/10 02:23:17;;;;;;;10.43;6.00;;;13.20;61.00;;;;;;5113655;28;20104;-78
2022/05/10 02:25:59;;;;;;;10.43;6.43;;;13.20;61.10;;;;;;5093809;28;20054;-73
2022/05/10 02:28:56;;;;;;;11.05;6.35;;;13.20;61.40;;;;;;5095308;28;20078;-74
2022/05/10 02:34:39;;;;;;;12.80;6.45;;;13.20;61.30;;;;;;5112728;28;20078;-79
2022/05/10 02:37:06;;;;;;;11.25;6.70;;;13.10;61.40;;;;;;5094615;28;20034;-74
2022/05/10 02:39:33;;;;;;;10.55;6.35;;;13.10;61.20;;;;;;5094677;28;20458;-74
2022/05/10 02:42:03;;;;;;;13.15;6.97;;;13.10;61.60;;;;;;5112564;28;20059;-73
2022/05/10 02:44:30;;;;;;;10.38;6.13;;;13.10;61.90;;;;;;5112908;28;20032;-78
2022/05/10 02:46:57;;;;;;;;;;;13.10;62.00;;;;;;5078076;28;20130;-78
2022/05/10 02:49:23;;;;;;;12.50;6.70;;;13.10;61.20;;;;;;5093822;28;19926;-78
2022/05/10 02:51:49;;;;;;;12.60;7.22;;;13.00;61.10;;;;;;5112834;28;20040;-79
2022/05/10 02:54:20;;;;;;;11.23;6.55;;;13.00;62.00;;;;;;5112888;28;20382;-73
2022/05/10 02:56:47;;;;;;;12.93;7.10;;;13.00;62.40;;;;;;5094487;28;20040;-79
2022/05/10 02:59:33;;;;;;;12.20;6.82;;;12.90;62.50;;;;;;5094639;28;20031;-79
2022/05/10 03:02:38;;;;;;;14.18;7.13;;;13.00;62.50;;;;;;5094328;28;20426;-79
2022/05/10 03:05:08;;;;;;;20.20;7.28;;;13.00;62.30;;;;;;5112682;28;20045;-74
2022/05/10 03:07:34;;;;;;;13.95;7.00;;;12.90;62.50;;;;;;5094983;28;20042;-79
2022/05/10 03:10:00;;;;;;;;;;;12.90;62.70;;;;;;5095307;28;20032;-79
2022/05/10 03:12:26;;;;;;;13.80;6.70;;;12.90;61.70;;;;;;5094125;28;20009;-74
2022/05/10 03:14:55;;;;;;;10.57;6.45;;;13.00;62.20;;;;;;5077772;28;20489;-73
2022/05/10 03:17:22;;;;;;;16.25;6.75;;;12.90;62.50;;;;;;5093917;28;20054;-79
2022/05/10 03:19:48;;;;;;;14.30;7.57;;;13.00;62.50;;;;;;5093503;28;20067;-79
2022/05/10 03:22:14;;;;;;;11.88;6.63;;;12.90;62.50;;;;;;5094161;28;20047;-79
2022/05/10 03:24:40;;;;;;;18.27;7.85;;;12.90;62.60;;;;;;5094201;28;20060;-73
2022/05/10 03:27:08;;;;;;;14.50;6.68;;;12.90;62.80;;;;;;5093847;28;20496;-73
2022/05/10 03:29:35;;;;;;;12.50;6.95;;;12.90;62.80;;;;;;5112604;28;20489;-79
2022/05/10 03:32:02;;;;;;;19.92;8.40;;;12.90;63.00;;;;;;5093820;28;20043;-74
2022/05/10 03:37:13;;;;;;;11.00;7.28;;;12.90;63.50;;;;;;5116282;28;20499;-73
2022/05/10 03:39:39;;;;;;;13.95;7.95;;;12.90;63.30;;;;;;5098105;28;20032;-79
2022/05/10 03:42:06;;;;;;;14.63;7.57;;;12.90;63.40;;;;;;5116159;28;20039;-74
2022/05/10 03:44:34;;;;;;;13.68;7.22;;;13.00;63.20;;;;;;5097964;28;20043;-73
2022/05/10 03:47:01;;;;;;;12.55;7.35;;;13.00;63.20;;;;;;5097842;28;20036;-78
2022/05/10 03:49:27;;;;;;;;;;;13.00;62.70;;;;;;5097422;28;20131;-79
2022/05/10 03:51:54;;;;;;;13.65;7.72;;;13.00;61.90;;;;;;5097613;28;19920;-73
2022/05/10 03:54:41;;;;;;;12.48;7.03;;;13.00;63.00;;;;;;5097919;28;20043;-78
2022/05/10 03:57:08;;;;;;;13.60;6.47;;;13.00;63.10;;;;;;5097417;28;20454;-79
2022/05/10 03:59:41;;;;;;;16.52;6.63;;;12.90;63.10;;;;;;5080864;28;20032;-73
2022/05/10 04:02:09;;;;;;;13.43;7.93;;;13.00;63.30;;;;;;5098436;28;20446;-73
2022/05/10 04:04:41;;;;;;;13.02;7.40;;;13.00;63.30;;;;;;5096810;28;20036;-78
2022/05/10 04:07:10;;;;;;;14.20;7.28;;;13.00;63.40;;;;;;5097637;28;20110;-79
2022/05/10 04:09:37;;;;;;;10.95;6.53;;;13.00;63.50;;;;;;5080522;28;20048;-74
2022/05/10 04:12:04;;;;;;;10.20;5.75;;;13.00;63.30;;;;;;5097319;28;20031;-73
2022/05/10 04:14:31;;;;;;;10.30;5.75;;;13.00;62.90;;;;;;5080433;28;20036;-79
2022/05/10 04:16:57;;;;;;;9.90;5.50;;;12.90;63.00;;;;;;5096995;28;20059;-79
2022/05/10 04:19:28;;;;;;;9.93;5.75;;;12.80;63.00;;;;;;5114643;28;20035;-74
2022/05/10 04:21:57;;;;;;;10.60;5.18;;;12.80;63.20;;;;;;5097056;28;20049;-79
2022/05/10 04:24:23;;;;;;;11.30;6.22;;;12.70;62.50;;;;;;5115152;28;20050;-79
2022/05/10 04:26:49;;;;;;;15.57;7.93;;;12.80;63.00;;;;;;5096047;28;20075;-73
2022/05/10 04:29:17;;;;;;;10.88;6.18;;;12.80;63.00;;;;;;5115322;28;20035;-74
2022/05/10 04:31:46;;;;;;;14.02;6.85;;;12.80;63.00;;;;;;5079912;28;20038;-80
2022/05/10 04:34:15;;;;;;;11.15;6.70;;;12.80;63.20;;;;;;5075933;28;20370;-80
2022/05/10 04:36:41;;;;;;;12.50;7.10;;;12.70;63.40;;;;;;5076921;28;20093;-75
2022/05/10 04:39:07;;;;;;;15.48;7.90;;;12.80;63.30;;;;;;5076615;28;20063;-73
2022/05/10 04:41:36;;;;;;;17.23;8.05;;;12.80;63.30;;;;;;5076335;28;20087;-72
2022/05/10 04:44:06;;;;;;;17.73;7.43;;;12.70;63.60;;;;;;5093453;28;20077;-75
2022/05/10 04:46:35;;;;;;;18.23;7.68;;;12.80;63.60;;;;;;5075736;28;20039;-80
2022/05/10 04:49:03;;;;;;;13.07;7.10;;;12.80;63.30;;;;;;5081522;28;20039;-79
2022/05/10 04:51:30;;;;;;;16.10;8.10;;;12.90;63.30;;;;;;5079539;28;20028;-74
2022/05/10 04:53:59;;;;;;;12.55;7.65;;;12.90;63.40;;;;;;5114819;28;20035;-80
2022/05/10 04:56:27;;;;;;;18.85;8.55;;;12.90;62.90;;;;;;5096326;28;20038;-76
2022/05/10 04:58:57;;;;;;;16.25;7.82;;;13.00;63.60;;;;;;5096584;28;20115;-73
2022/05/10 05:01:29;;;;;;;15.13;8.05;;;13.00;63.50;;;;;;5096518;28;20063;-74
2022/05/10 05:03:59;;;;;;;14.38;8.55;;;13.10;63.90;;;;;;5095606;28;20070;-74
2022/05/10 05:06:26;;;;;;;13.23;8.25;;;13.10;64.00;;;;;;5096359;28;20451;-79
2022/05/10 05:08:59;;;;;;;14.60;8.60;;;13.20;64.40;;;;;;5096286;28;20093;-80
2022/05/10 05:11:25;;;;;;;13.23;8.25;;;13.20;64.60;;;;;;5079771;28;20102;-79
2022/05/10 05:13:52;;;;;;;15.05;9.25;;;13.20;64.80;;;;;;5096357;28;20042;-80
2022/05/10 05:16:34;;;;;;;14.73;8.70;;;13.30;64.80;;;;;;5095970;28;20110;-81
2022/05/10 05:19:00;;;;;;;13.90;7.88;;;13.30;65.10;;;;;;5095485;28;20508;-80
2022/05/10 05:21:31;;;;;;;16.08;8.60;;;13.30;65.30;;;;;;5095725;28;20040;-74
2022/05/10 05:23:57;;;;;;;16.52;8.10;;;13.40;65.30;;;;;;5114416;28;20062;-80
2022/05/10 05:26:24;;;;;;;14.35;8.55;;;13.50;65.30;;;;;;5113829;28;20135;-74
2022/05/10 05:28:51;;;;;;;14.25;7.90;;;13.60;65.40;;;;;;5096209;28;20032;-80
2022/05/10 05:31:17;;;;;;;13.07;8.27;;;13.60;64.70;;;;;;5095590;28;20031;-74
2022/05/10 05:33:43;;;;;;;13.25;8.35;;;13.70;64.50;;;;;;5113529;28;20036;-80
2022/05/10 05:36:10;;;;;;;12.82;8.10;;;13.80;65.30;;;;;;5095219;28;20035;-79
2022/05/10 05:38:38;;;;;;;21.00;7.80;;;13.90;65.40;;;;;;5095664;28;20040;-79
2022/05/10 05:41:04;;;;;;;12.85;7.75;;;14.00;65.50;;;;;;5113633;28;20031;-80
2022/05/10 05:43:30;;;;;;;11.02;7.13;;;14.10;65.70;;;;;;5095775;28;20070;-73
2022/05/10 05:45:56;;;;;;;13.90;7.60;;;14.20;65.60;;;;;;5113446;28;20032;-74
2022/05/10 05:48:23;;;;;;;10.88;7.00;;;14.30;65.30;;;;;;5078094;28;20040;-73
2022/05/10 05:50:49;;;;;;;11.68;7.50;;;14.40;65.20;;;;;;5094185;28;20038;-74
2022/05/10 05:53:15;;;;;;;16.30;8.25;;;14.50;65.60;;;;;;5095229;28;20051;-74
2022/05/10 05:55:42;;;;;;;11.77;7.38;;;14.50;65.80;;;;;;5078147;28;20031;-73
2022/05/10 05:58:10;;;;;;;14.02;8.52;;;14.70;66.10;;;;;;5095661;28;20088;-77
2022/05/10 06:00:47;;;;;;;14.55;8.55;;;14.70;66.20;;;;;;5095230;28;20558;-79
2022/05/10 06:03:13;;;;;;;13.45;8.50;;;14.80;66.30;;;;;;5114085;28;20035;-79
2022/05/10 06:05:45;;;;;;;12.60;8.73;;;14.90;66.00;;;;;;5074028;28;20507;-74
2022/05/10 06:08:19;;;;;;;14.18;8.00;;;15.00;65.60;;;;;;5093035;28;20040;-74
2022/05/10 06:10:50;;;;;;;17.15;9.07;;;15.20;65.60;;;;;;5092944;28;20028;-79
2022/05/10 06:13:21;;;;;;;15.98;9.95;;;15.30;65.30;;;;;;5075645;28;20070;-73
2022/05/10 06:15:49;;;;;;;15.93;8.10;;;15.40;64.90;;;;;;5092706;28;20055;-79
2022/05/10 06:18:15;;;;;;;15.88;8.65;;;15.60;64.70;;;;;;5074640;28;20089;-73
2022/05/10 06:20:44;;;;;;;12.77;8.32;;;15.60;64.50;;;;;;5067111;28;20408;-78
2022/05/10 06:23:10;;;;;;;16.13;8.52;;;15.70;64.80;;;;;;5074924;28;20131;-73
2022/05/10 06:25:37;;;;;;;19.35;9.35;;;15.80;64.50;;;;;;5074416;28;20044;-77
2022/05/10 06:28:04;;;;;;;13.25;8.35;;;15.90;64.30;;;;;;5074888;28;20101;-77
2022/05/10 06:30:32;;;;;;;11.48;7.43;;;16.10;63.90;;;;;;5057479;28;20497;-79
2022/05/10 06:32:59;;;;;;;17.25;7.88;;;16.20;63.50;;;;;;5074836;28;20032;-79
2022/05/10 06:35:28;;;;;;;12.50;7.03;;;16.30;63.60;;;;;;5067035;28;20198;-78
2022/05/10 06:40:39;;;;;;;14.82;8.07;;;16.50;62.80;;;;;;5097167;28;20043;-78
2022/05/10 06:43:06;;;;;;;14.00;8.10;;;16.80;62.90;;;;;;5113035;28;20028;-72
2022/05/10 06:45:32;;;;;;;13.38;7.75;;;16.90;62.00;;;;;;5094536;28;20044;-73
2022/05/10 06:47:58;;;;;;;13.93;8.13;;;17.10;62.60;;;;;;5094890;28;20032;-78
2022/05/10 06:50:31;;;;;;;13.13;7.88;;;17.30;62.60;;;;;;5093365;28;20040;-73
2022/05/10 06:53:01;;;;;;;18.58;8.30;;;17.40;61.80;;;;;;5078049;28;20051;-72
2022/05/10 06:55:30;;;;;;;13.90;8.00;;;17.70;61.60;;;;;;5094740;28;20102;-78
2022/05/10 06:57:57;;;;;;;14.63;7.55;;;17.90;61.30;;;;;;5094815;28;20035;-77
2022/05/10 07:00:25;;;;;;;13.20;7.25;;;18.20;61.10;;;;;;5094310;28;20031;-73
2022/05/10 07:02:51;;;;;;;10.95;6.78;;;18.40;60.70;;;;;;5094434;28;20050;-78
2022/05/10 07:05:23;;;;;;;12.70;6.63;;;18.60;60.30;;;;;;5093382;28;20057;-73
2022/05/10 07:07:49;;;;;;;16.52;8.57;;;18.80;59.40;;;;;;5094314;28;20050;-78
2022/05/10 07:10:18;;;;;;;10.80;6.90;;;19.10;59.60;;;;;;5094838;28;20055;-73
2022/05/10 07:12:45;;;;;;;11.32;7.22;;;19.30;59.00;;;;;;5098738;28;20035;-78
2022/05/10 07:15:31;;;;;;;14.82;7.10;;;19.60;58.60;;;;;;5098218;28;20067;-73
2022/05/10 07:17:58;;;;;;;10.37;6.90;;;19.90;58.50;;;;;;5116836;28;20031;-73
2022/05/10 07:20:24;;;;;;;10.98;6.93;;;20.10;57.70;;;;;;5080201;28;20039;-73
2022/05/10 07:22:50;;;;;;;10.48;6.82;;;20.30;57.00;;;;;;5117049;28;20438;-78
2022/05/10 07:25:21;;;;;;;10.85;7.25;;;20.50;57.10;;;;;;5116134;28;20055;-78
2022/05/10 07:27:47;;;;;;;13.45;6.65;;;20.50;56.90;;;;;;5116850;28;20052;-72
2022/05/10 07:30:14;;;;;;;;;;;20.60;56.60;;;;;;5116703;28;20493;-78
2022/05/10 07:32:40;;;;;;;13.43;7.37;;;20.60;57.30;;;;;;5098639;28;20010;-79
2022/05/10 07:35:07;;;;;;;16.00;8.77;;;20.60;56.60;;;;;;5097056;28;20062;-73
2022/05/10 07:37:34;;;;;;;15.27;7.80;;;20.60;56.10;;;;;;5098023;28;20131;-78
2022/05/10 07:40:02;;;;;;;12.98;6.72;;;20.70;56.20;;;;;;5116414;28;20081;-79
2022/05/10 07:42:31;;;;;;;13.25;6.68;;;20.70;55.30;;;;;;5097763;28;20114;-73
2022/05/10 07:45:09;;;;;;;11.65;6.53;;;20.80;55.30;;;;;;5098329;28;20088;-78
2022/05/10 07:47:35;;;;;;;12.07;7.13;;;20.90;55.10;;;;;;5098732;28;20110;-78
2022/05/10 07:50:04;;;;;;;;;;;20.90;54.70;;;;;;5116370;28;20169;-77
2022/05/10 07:52:30;;;;;;;13.57;7.63;;;21.00;54.70;;;;;;5115941;28;19981;-73
2022/05/10 07:54:56;;;;;;;13.27;6.95;;;21.10;54.30;;;;;;5077365;28;20039;-73
2022/05/10 07:57:22;;;;;;;;;;;21.30;53.70;;;;;;5077634;28;20055;-74
2022/05/10 07:59:48;;;;;;;10.07;6.38;;;21.50;54.60;;;;;;5095666;28;19916;-78
2022/05/10 08:02:14;;;;;;;16.42;6.47;;;21.70;52.80;;;;;;5095420;28;20419;-78
2022/05/10 08:04:40;;;;;;;;;;;21.90;52.50;;;;;;5096067;28;20136;-78
2022/05/10 08:07:08;;;;;;;11.95;5.78;;;22.30;53.30;;;;;;5112621;28;19915;-78
2022/05/10 08:09:34;;;;;;;10.45;6.10;;;22.70;51.20;;;;;;5115653;28;20092;-79
2022/05/10 08:12:00;;;;;;;;;;;23.20;50.10;;;;;;5097670;28;20088;-75
2022/05/10 08:14:26;;;;;;;13.93;5.90;;;23.50;51.00;;;;;;5097466;28;19919;-79
2022/05/10 08:16:53;;;;;;;14.00;5.88;;;23.90;48.60;;;;;;5097171;28;20067;-78
2022/05/10 08:19:21;;;;;;;11.32;5.22;;;24.50;48.80;;;;;;5097278;28;20043;-74
2022/05/10 08:21:47;;;;;;;14.13;5.82;;;25.00;47.30;;;;;;5113581;28;20107;-77
2022/05/10 08:24:13;;;;;;;;;;;25.60;46.10;;;;;;5115850;28;20088;-76
2022/05/10 08:26:40;;;;;;;7.88;4.63;;;26.10;48.50;;;;;;5096797;28;19919;-76
2022/05/10 08:29:06;;;;;;;7.05;4.38;;;26.50;42.60;;;;;;5115160;28;20032;-78
2022/05/10 08:31:32;;;;;;;9.40;4.78;;;27.20;40.60;;;;;;5096683;28;20429;-71
2022/05/10 08:34:00;;;;;;;8.30;4.18;;;27.70;41.00;;;;;;5115706;28;20430;-80
2022/05/10 08:36:26;;;;;;;7.65;4.70;;;28.40;38.60;;;;;;5095543;28;20114;-72
2022/05/10 08:38:55;;;;;;;11.70;4.55;;;29.00;38.90;;;;;;5115007;28;20054;-75
2022/05/10 08:41:43;;;;;;;7.80;5.10;;;29.70;37.50;;;;;;5114783;28;20067;-79
2022/05/10 08:44:31;;;;;;;14.23;4.90;;;30.50;37.10;;;;;;5115129;28;20040;-71
2022/05/10 08:47:03;;;;;;;11.38;4.65;;;31.30;35.70;;;;;;5114829;28;20036;-74
2022/05/10 08:49:49;;;;;;;13.63;4.72;;;32.00;33.20;;;;;;5096640;28;20031;-73
2022/05/10 08:52:17;;;;;;;8.02;4.38;;;32.80;32.20;;;;;;5095680;28;20031;-78
2022/05/10 08:54:44;;;;;;;6.30;3.85;;;33.30;29.40;;;;;;5096586;28;20488;-78
2022/05/10 08:57:48;;;;;;;7.03;4.63;;;33.90;28.50;;;;;;5114725;28;20032;-78
2022/05/10 09:00:54;;;;;;;6.93;4.78;;;34.70;29.40;;;;;;5114660;28;20426;-78
2022/05/10 09:04:16;;;;;;;7.80;4.40;;;35.40;28.30;;;;;;5096535;28;20063;-73
2022/05/10 09:07:23;;;;;;;6.82;4.35;;;36.20;27.40;;;;;;5113095;28;20042;-78
2022/05/10 09:10:27;;;;;;;9.73;4.17;;;37.00;26.50;;;;;;5096268;28;20043;-73
2022/05/10 09:13:06;;;;;;;7.82;4.45;;;37.50;25.50;;;;;;5114962;28;20516;-77
2022/05/10 09:15:44;;;;;;;11.02;5.60;;;38.00;24.00;;;;;;5078713;28;20104;-78
2022/05/10 09:18:51;;;;;;;9.38;5.40;;;38.40;22.50;;;;;;5096696;28;20063;-72
2022/05/10 09:21:28;;;;;;;8.38;4.18;;;38.80;21.60;;;;;;5094889;28;20417;-77
2022/05/10 09:24:19;;;;;;;5.95;4.10;;;39.00;21.30;;;;;;5079521;28;20089;-77
2022/05/10 09:26:52;;;;;;;8.45;4.15;;;39.70;20.70;;;;;;5114059;28;20361;-72
2022/05/10 09:29:40;;;;;;;6.60;4.18;;;40.30;19.00;;;;;;5096000;28;20089;-72
2022/05/10 09:35:30;;;;;;;5.78;3.85;;;41.10;20.10;;;;;;5098272;28;20050;-72
2022/05/10 09:38:16;;;;;;;12.93;4.18;;;41.80;18.00;;;;;;5095204;28;20110;-77
2022/05/10 09:40:46;;;;;;;10.02;4.28;;;42.40;18.40;;;;;;5095414;28;20055;-76
2022/05/10 09:43:32;;;;;;;8.18;4.18;;;42.80;16.60;;;;;;5095986;28;20035;-77
2022/05/10 09:46:36;;;;;;;6.35;3.90;;;43.10;17.50;;;;;;5095317;28;20118;-73
2022/05/10 09:49:02;;;;;;;6.63;4.20;;;43.60;17.30;;;;;;5095575;28;20043;-75
2022/05/10 09:51:56;;;;;;;7.22;4.20;;;44.20;16.00;;;;;;5094367;28;20093;-72
2022/05/10 09:54:48;;;;;;;9.95;4.03;;;44.50;15.60;;;;;;5078576;28;20116;-72
2022/05/10 09:57:56;;;;;;;5.65;4.30;;;44.70;15.40;;;;;;5096068;28;20077;-72
2022/05/10 10:01:03;;;;;;;7.63;4.65;;;44.90;14.80;;;;;;5095019;28;20032;-72
2022/05/10 10:03:49;;;;;;;6.90;4.43;;;45.50;15.00;;;;;;5113510;28;20046;-76
2022/05/10 10:06:25;;;;;;;6.35;4.28;;;46.30;14.60;;;;;;5112318;28;20043;-72
2022/05/10 10:08:58;;;;;;;6.53;4.55;;;46.70;13.60;;;;;;5095416;28;20036;-76
2022/05/10 10:11:50;;;;;;;7.90;4.63;;;46.70;13.40;;;;;;5113185;28;20552;-72
2022/05/10 10:14:44;;;;;;;6.43;4.70;;;47.10;14.10;;;;;;5113467;28;20074;-73
2022/05/10 10:17:37;;;;;;;9.10;4.22;;;47.70;13.80;;;;;;5077962;28;20463;-72
2022/05/10 10:20:46;;;;;;;8.38;4.75;;;48.10;13.60;;;;;;5095590;28;20031;-73
2022/05/10 10:24:08;;;;;;;6.55;4.55;;;48.20;13.00;;;;;;5112833;28;20042;-76
2022/05/10 10:26:57;;;;;;;7.28;4.25;;;48.30;13.20;;;;;;5092314;28;20051;-72
2022/05/10 10:30:23;;;;;;;6.10;4.15;;;48.90;12.90;;;;;;5058020;28;20157;-73
2022/05/10 10:33:45;;;;;;;6.53;4.45;;;49.50;13.10;;;;;;5093250;28;20032;-76
2022/05/10 10:36:51;;;;;;;6.88;5.22;;;49.80;12.50;;;;;;5092376;28;20036;-76
2022/05/10 10:39:34;;;;;;;12.80;5.53;;;50.40;12.40;;;;;;5092679;28;20051;-72
2022/05/10 10:42:29;;;;;;;8.88;4.55;;;50.60;11.90;;;;;;5074532;28;20039;-76
2022/05/10 10:45:00;;;;;;;7.45;4.57;;;50.80;11.80;;;;;;5074025;28;20051;-76
2022/05/10 10:48:22;;;;;;;7.43;4.90;;;51.00;11.40;;;;;;5074495;28;20050;-73
2022/05/10 10:50:48;;;;;;;5.80;4.57;;;51.40;11.30;;;;;;5074220;28;20036;-76
2022/05/10 10:53:20;;;;;;;6.35;4.78;;;51.80;11.10;;;;;;5092177;28;20089;-73
2022/05/10 10:56:04;;;;;;;5.53;4.40;;;51.80;10.20;;;;;;5074767;28;20127;-76
2022/05/10 10:58:42;;;;;;;9.70;5.27;;;50.00;11.30;;;;;;5092490;28;20036;-76
2022/05/10 11:01:17;;;;;;;6.53;4.88;;;48.10;12.30;;;;;;5092152;28;20028;-76
2022/05/10 11:04:08;;;;;;;6.53;4.57;;;48.50;12.30;;;;;;5092520;28;20090;-75
2022/05/10 11:06:52;;;;;;;6.35;4.40;;;49.50;11.60;;;;;;5073080;28;20086;-72
2022/05/10 11:10:14;;;;;;;5.88;4.78;;;49.80;11.30;;;;;;5057688;28;20040;-72
2022/05/10 11:13:18;;;;;;;11.70;4.72;;;50.40;11.00;;;;;;5074494;28;20193;-76
2022/05/10 11:16:21;;;;;;;5.75;4.75;;;51.20;11.10;;;;;;5091994;28;20036;-73
2022/05/10 11:19:31;;;;;;;6.43;5.28;;;51.20;10.80;;;;;;5092393;28;20040;-76
2022/05/10 11:22:09;;;;;;;12.27;5.03;;;51.60;10.30;;;;;;5091387;28;20047;-72
2022/05/10 11:25:31;;;;;;;7.45;4.80;;;49.60;11.10;;;;;;5074026;28;20085;-72
2022/05/10 11:28:30;;;;;;;6.05;4.30;;;47.20;12.40;;;;;;5092691;28;20062;-72
2022/05/10 11:31:52;;;;;;;6.05;4.25;;;45.20;13.30;;;;;;5057073;28;20032;-76
2022/05/10 11:34:42;;;;;;;8.90;4.53;;;43.60;13.80;;;;;;5092155;28;20032;-74
2022/05/10 11:37:15;;;;;;;6.20;4.10;;;42.10;14.80;;;;;;5090940;28;20074;-77
2022/05/10 11:40:09;;;;;;;23.38;5.57;;;43.10;14.90;;;;;;5092188;28;20035;-77
2022/05/10 11:43:31;;;;;;;11.50;4.20;;;45.60;13.60;;;;;;5074037;28;20038;-77
2022/05/10 11:46:53;;;;;;;10.75;4.15;;;47.50;12.60;;;;;;5073672;28;20062;-73
2022/05/10 11:49:57;;;;;;;5.57;3.90;;;48.80;11.80;;;;;;5073522;28;20630;-78
2022/05/10 11:53:06;;;;;;;5.82;4.00;;;49.20;11.00;;;;;;5072579;28;20119;-78
2022/05/10 11:55:59;;;;;;;6.20;3.60;;;49.90;10.40;;;;;;5091616;28;20036;-78
2022/05/10 11:58:28;;;;;;;6.80;3.90;;;50.80;10.70;;;;;;5077485;28;20117;-73
2022/05/10 12:01:20;;;;;;;7.97;5.18;;;51.70;9.80;;;;;;5095221;28;20115;-77
2022/05/10 12:04:06;;;;;;;6.30;4.40;;;52.00;10.20;;;;;;5095575;28;20103;-73
2022/05/10 12:06:35;;;;;;;9.15;4.45;;;49.30;11.10;;;;;;5094987;28;20074;-77
2022/05/10 12:09:05;;;;;;;7.15;3.65;;;47.10;11.70;;;;;;5094638;28;20476;-77
2022/05/10 12:11:31;;;;;;;4.80;3.50;;;45.50;12.00;;;;;;5077028;28;20492;-77
2022/05/10 12:23:07;;;;;;;33.78;4.35;;;47.10;11.90;;;;;;5080575;28;20024;-77
2022/05/10 12:26:11;;;;;;;6.63;3.60;;;45.60;12.80;;;;;;5106437;28;20054;-76
2022/05/10 12:28:55;;;;;;;5.57;3.63;;;44.20;13.40;;;;;;5115413;28;20065;-77
2022/05/10 12:32:01;;;;;;;11.48;3.90;;;42.60;14.00;;;;;;5096877;28;20054;-73
2022/05/10 12:34:48;;;;;;;8.02;4.20;;;42.70;14.40;;;;;;5080418;28;20381;-73
2022/05/10 12:37:54;;;;;;;10.85;4.05;;;45.40;13.40;;;;;;5096302;28;20039;-79
2022/05/10 12:40:38;;;;;;;11.13;3.50;;;47.40;12.70;;;;;;5096566;28;20329;-77
2022/05/10 12:44:01;;;;;;;6.43;4.28;;;48.60;11.80;;;;;;5096832;28;20027;-79
2022/05/10 12:47:23;;;;;;;6.47;3.67;;;49.80;11.60;;;;;;5114677;28;20035;-78
2022/05/10 12:50:25;;;;;;;13.32;5.03;;;50.60;11.10;;;;;;5114986;28;20024;-73
2022/05/10 12:52:51;;;;;;;6.05;4.35;;;51.20;10.90;;;;;;5096060;28;20249;-73
2022/05/10 12:55:39;;;;;;;8.02;4.13;;;51.50;10.10;;;;;;5114580;28;20035;-73
2022/05/10 12:58:31;;;;;;;5.22;4.13;;;51.80;10.00;;;;;;5115367;28;20126;-77
2022/05/10 13:01:01;;;;;;;6.57;4.25;;;52.30;10.10;;;;;;5096515;28;20474;-73
2022/05/10 13:04:05;;;;;;;6.32;4.13;;;52.80;9.60;;;;;;5096566;28;20058;-72
2022/05/10 13:07:28;;;;;;;9.07;4.15;;;53.40;9.70;;;;;;5096071;28;20621;-76
2022/05/10 13:10:34;;;;;;;10.95;4.70;;;53.80;9.60;;;;;;5113916;28;20488;-72
2022/05/10 13:13:09;;;;;;;8.43;4.75;;;54.00;9.90;;;;;;5114992;28;20525;-76
2022/05/10 13:15:42;;;;;;;37.50;5.88;;;54.40;9.00;;;;;;5114184;28;20556;-72
2022/05/10 13:18:12;;;;;;;53.85;7.00;;;54.60;8.80;;;;;;5114972;28;20069;-77
2022/05/10 13:21:02;;;;;;;7.18;6.20;;;54.50;8.80;;;;;;5096457;28;20070;-75
2022/05/10 13:23:31;;;;;;;8.45;5.38;;;54.80;9.00;;;;;;5095195;28;20050;-73
2022/05/10 13:26:16;;;;;;;6.05;5.10;;;54.60;8.90;;;;;;5078630;28;20448;-75
2022/05/10 13:29:02;;;;;;;13.13;6.07;;;54.10;8.80;;;;;;5114505;28;20041;-73
2022/05/10 13:31:49;;;;;;;11.30;5.40;;;54.70;8.80;;;;;;5078686;28;20024;-72
2022/05/10 13:34:18;;;;;;;7.95;4.90;;;54.50;8.80;;;;;;5114264;28;20535;-76
2022/05/10 13:36:50;;;;;;;13.07;5.70;;;54.30;8.80;;;;;;5095880;28;20043;-75
2022/05/10 13:39:36;;;;;;;8.02;5.15;;;54.20;8.80;;;;;;5094863;28;20373;-76
2022/05/10 13:42:08;;;;;;;7.20;5.70;;;54.20;9.10;;;;;;5095776;28;20209;-76
2022/05/10 13:44:40;;;;;;;6.43;5.13;;;54.30;9.00;;;;;;5096017;28;20460;-72
2022/05/10 13:47:37;;;;;;;5.72;5.03;;;54.20;8.50;;;;;;5095277;28;20104;-73
2022/05/10 13:50:04;;;;;;;9.27;4.65;;;54.00;9.10;;;;;;5095570;28;20042;-76
2022/05/10 13:52:35;;;;;;;7.78;5.28;;;53.80;8.50;;;;;;5113800;28;20040;-76
2022/05/10 13:55:07;;;;;;;12.75;5.50;;;53.80;8.60;;;;;;5094858;28;20036;-72
2022/05/10 13:57:35;;;;;;;14.98;5.20;;;53.70;8.40;;;;;;5095585;28;20036;-72
2022/05/10 14:00:25;;;;;;;6.97;4.40;;;53.60;8.40;;;;;;5095607;28;20024;-72
2022/05/10 14:03:18;;;;;;;6.85;5.00;;;53.50;8.80;;;;;;5095977;28;20076;-76
2022/05/10 14:05:49;;;;;;;9.40;4.65;;;53.40;8.80;;;;;;5095985;28;20110;-76
2022/05/10 14:08:39;;;;;;;5.22;4.20;;;53.20;9.00;;;;;;5095209;28;20046;-72